createdAt,value
2018-10-07T00:00:40.652Z,996.21
2018-10-07T00:01:40.663Z,996.25
2018-10-07T00:02:40.619Z,996.16
2018-10-07T00:03:40.605Z,996.21
2018-10-07T00:04:40.686Z,996.23
2018-10-07T00:05:40.585Z,996.29
2018-10-07T00:06:40.574Z,996.25
2018-10-07T00:07:40.562Z,996.35
2018-10-07T00:08:40.554Z,996.43
2018-10-07T00:09:40.578Z,996.50
2018-10-07T00:10:40.567Z,996.50
2018-10-07T00:11:40.572Z,996.53
2018-10-07T00:12:40.519Z,996.51
2018-10-07T00:13:40.521Z,996.57
2018-10-07T00:14:40.524Z,996.63
2018-10-07T00:15:40.537Z,996.64
2018-10-07T00:16:40.469Z,996.60
2018-10-07T00:17:40.455Z,996.70
2018-10-07T00:18:40.446Z,996.78
2018-10-07T00:19:40.444Z,996.76
2018-10-07T00:20:40.461Z,996.84
2018-10-07T00:21:40.415Z,996.84
2018-10-07T00:22:40.519Z,996.86
2018-10-07T00:23:40.409Z,996.91
2018-10-07T00:24:40.380Z,996.93
2018-10-07T00:25:40.406Z,996.89
2018-10-07T00:26:40.361Z,996.91
2018-10-07T00:27:40.360Z,996.88
2018-10-07T00:28:40.383Z,996.90
2018-10-07T00:29:40.341Z,996.90
2018-10-07T00:30:40.379Z,996.85
2018-10-07T00:31:40.307Z,996.89
2018-10-07T00:32:40.296Z,997.00
2018-10-07T00:33:40.287Z,996.98
2018-10-07T00:34:40.284Z,997.05
2018-10-07T00:35:40.294Z,997.02
2018-10-07T00:36:40.336Z,997.06
2018-10-07T00:37:40.258Z,997.06
2018-10-07T00:38:40.289Z,997.10
2018-10-07T00:39:40.237Z,997.02
2018-10-07T00:40:40.211Z,997.16
2018-10-07T00:41:40.267Z,997.17
2018-10-07T00:42:40.202Z,997.23
2018-10-07T00:43:40.183Z,997.20
2018-10-07T00:44:40.180Z,997.32
2018-10-07T00:45:40.178Z,997.36
2018-10-07T00:46:40.178Z,997.27
2018-10-07T00:47:40.147Z,997.36
2018-10-07T00:48:40.190Z,997.26
2018-10-07T00:49:40.116Z,997.21
2018-10-07T00:50:40.144Z,997.27
2018-10-07T00:51:40.153Z,997.30
2018-10-07T00:52:40.165Z,997.30
2018-10-07T00:53:40.078Z,997.26
2018-10-07T00:54:40.064Z,997.34
2018-10-07T00:55:40.060Z,997.41
2018-10-07T00:56:40.088Z,997.42
2018-10-07T00:57:40.088Z,997.44
2018-10-07T00:58:40.044Z,997.48
2018-10-07T00:59:40.046Z,997.52
2018-10-07T01:00:40.004Z,997.45
2018-10-07T01:01:40.004Z,997.49
2018-10-07T01:02:40.076Z,997.44
2018-10-07T01:03:39.976Z,997.47
2018-10-07T01:04:39.958Z,997.50
2018-10-07T01:05:39.948Z,997.48
2018-10-07T01:06:39.940Z,997.52
2018-10-07T01:07:39.965Z,997.52
2018-10-07T01:08:39.929Z,997.46
2018-10-07T01:09:39.902Z,997.56
2018-10-07T01:10:39.899Z,997.56
2018-10-07T01:11:39.881Z,997.56
2018-10-07T01:12:39.872Z,997.53
2018-10-07T01:13:39.885Z,997.61
2018-10-07T01:14:39.854Z,997.58
2018-10-07T01:15:39.866Z,997.59
2018-10-07T01:16:39.828Z,997.59
2018-10-07T01:17:39.818Z,997.50
2018-10-07T01:18:39.886Z,997.52
2018-10-07T01:19:39.793Z,997.70
2018-10-07T01:20:39.786Z,997.60
2018-10-07T01:21:39.794Z,997.63
2018-10-07T01:22:39.765Z,997.63
2018-10-07T01:23:39.831Z,997.64
2018-10-07T01:24:39.757Z,997.67
2018-10-07T01:25:39.731Z,997.73
2018-10-07T01:26:39.719Z,997.78
2018-10-07T01:27:39.710Z,997.78
2018-10-07T01:28:39.729Z,997.77
2018-10-07T01:29:39.723Z,997.78
2018-10-07T01:30:39.696Z,997.77
2018-10-07T01:31:39.672Z,997.84
2018-10-07T01:32:39.656Z,997.82
2018-10-07T01:33:39.656Z,997.94
2018-10-07T01:34:39.667Z,997.82
2018-10-07T01:35:39.622Z,997.97
2018-10-07T01:36:39.629Z,997.98
2018-10-07T01:37:39.600Z,997.98
2018-10-07T01:38:39.589Z,997.98
2018-10-07T01:39:39.611Z,998.00
2018-10-07T01:40:39.579Z,998.01
2018-10-07T01:41:39.564Z,997.99
2018-10-07T01:42:39.559Z,998.08
2018-10-07T01:43:39.569Z,997.96
2018-10-07T01:44:39.568Z,998.07
2018-10-07T01:45:39.526Z,998.04
2018-10-07T01:46:39.518Z,998.02
2018-10-07T01:47:39.495Z,997.88
2018-10-07T01:48:39.486Z,998.12
2018-10-07T01:49:39.499Z,997.92
2018-10-07T01:50:39.489Z,997.85
2018-10-07T01:51:39.474Z,998.10
2018-10-07T01:52:39.448Z,998.06
2018-10-07T01:53:39.431Z,998.19
2018-10-07T01:54:39.449Z,998.19
2018-10-07T01:55:39.441Z,998.30
2018-10-07T01:56:39.402Z,998.22
2018-10-07T01:57:39.397Z,998.35
2018-10-07T01:58:39.402Z,998.32
2018-10-07T01:59:39.383Z,998.30
2018-10-07T02:00:39.395Z,998.35
2018-10-07T02:01:39.349Z,998.35
2018-10-07T02:02:39.341Z,998.25
2018-10-07T02:03:39.336Z,998.34
2018-10-07T02:04:39.343Z,998.35
2018-10-07T02:05:39.346Z,998.36
2018-10-07T02:06:39.295Z,998.37
2018-10-07T02:07:39.287Z,998.53
2018-10-07T02:08:39.292Z,998.51
2018-10-07T02:09:39.279Z,998.41
2018-10-07T02:10:39.253Z,998.52
2018-10-07T02:11:39.274Z,998.68
2018-10-07T02:12:39.270Z,998.72
2018-10-07T02:13:39.221Z,998.72
2018-10-07T02:14:39.210Z,998.68
2018-10-07T02:15:39.202Z,998.61
2018-10-07T02:16:39.218Z,998.74
2018-10-07T02:17:39.196Z,998.76
2018-10-07T02:18:39.187Z,998.64
2018-10-07T02:19:39.177Z,998.73
2018-10-07T02:20:39.159Z,998.78
2018-10-07T02:21:39.169Z,998.87
2018-10-07T02:22:39.141Z,998.72
2018-10-07T02:23:39.122Z,998.88
2018-10-07T02:24:40.050Z,998.78
2018-10-07T02:25:39.095Z,999.03
2018-10-07T02:26:39.160Z,998.95
2018-10-07T02:27:39.078Z,999.04
2018-10-07T02:28:39.075Z,998.93
2018-10-07T02:29:39.050Z,999.03
2018-10-07T02:30:39.058Z,998.91
2018-10-07T02:31:39.036Z,999.02
2018-10-07T02:32:39.077Z,998.95
2018-10-07T02:33:39.011Z,999.15
2018-10-07T02:34:38.999Z,999.16
2018-10-07T02:35:38.986Z,999.25
2018-10-07T02:36:38.982Z,999.11
2018-10-07T02:37:38.997Z,999.21
2018-10-07T02:38:38.977Z,999.27
2018-10-07T02:39:38.953Z,999.30
2018-10-07T02:40:38.936Z,999.36
2018-10-07T02:41:38.927Z,999.31
2018-10-07T02:42:38.953Z,999.26
2018-10-07T02:43:38.903Z,999.35
2018-10-07T02:44:38.904Z,999.41
2018-10-07T02:45:38.905Z,999.55
2018-10-07T02:46:38.876Z,999.51
2018-10-07T02:47:38.870Z,999.55
2018-10-07T02:48:38.881Z,999.67
2018-10-07T02:49:38.851Z,999.44
2018-10-07T02:50:38.832Z,999.61
2018-10-07T02:51:38.841Z,999.64
2018-10-07T02:52:38.814Z,999.65
2018-10-07T02:53:38.828Z,999.82
2018-10-07T02:54:38.797Z,999.73
2018-10-07T02:55:38.816Z,999.79
2018-10-07T02:56:38.769Z,999.81
2018-10-07T02:57:38.786Z,999.81
2018-10-07T02:58:38.785Z,1000.00
2018-10-07T02:59:38.740Z,999.85
2018-10-07T03:00:38.723Z,999.80
2018-10-07T03:01:38.721Z,999.92
2018-10-07T03:02:38.741Z,999.90
2018-10-07T03:03:38.703Z,999.95
2018-10-07T03:04:38.751Z,1000.02
2018-10-07T03:05:38.676Z,999.98
2018-10-07T03:06:38.661Z,1000.00
2018-10-07T03:07:38.656Z,1000.03
2018-10-07T03:08:38.651Z,999.97
2018-10-07T03:09:38.666Z,1000.10
2018-10-07T03:10:38.631Z,1000.16
2018-10-07T03:11:38.608Z,1000.25
2018-10-07T03:12:38.626Z,1000.36
2018-10-07T03:13:38.594Z,1000.30
2018-10-07T03:14:38.616Z,1000.42
2018-10-07T03:15:38.576Z,1000.38
2018-10-07T03:16:38.576Z,1000.35
2018-10-07T03:17:38.546Z,1000.45
2018-10-07T03:18:38.536Z,1000.50
2018-10-07T03:19:38.576Z,1000.40
2018-10-07T03:20:38.546Z,1000.48
2018-10-07T03:21:38.512Z,1000.56
2018-10-07T03:22:38.515Z,1000.46
2018-10-07T03:23:38.486Z,1000.44
2018-10-07T03:24:38.481Z,1000.40
2018-10-07T03:25:38.523Z,1000.49
2018-10-07T03:26:38.459Z,1000.47
2018-10-07T03:27:38.450Z,1000.62
2018-10-07T03:28:38.435Z,1000.39
2018-10-07T03:29:39.107Z,1000.44
2018-10-07T03:30:38.447Z,1000.37
2018-10-07T03:31:38.403Z,1000.46
2018-10-07T03:32:38.430Z,1000.59
2018-10-07T03:33:38.381Z,1000.58
2018-10-07T03:34:38.369Z,1000.46
2018-10-07T03:35:38.405Z,1000.38
2018-10-07T03:36:38.350Z,1000.59
2018-10-07T03:37:38.355Z,1000.49
2018-10-07T03:38:38.354Z,1000.60
2018-10-07T03:39:38.319Z,1000.57
2018-10-07T03:40:38.318Z,1000.42
2018-10-07T03:41:38.331Z,1000.65
2018-10-07T03:42:38.314Z,1000.67
2018-10-07T03:43:38.280Z,1000.66
2018-10-07T03:44:38.278Z,1000.64
2018-10-07T03:45:38.278Z,1000.41
2018-10-07T03:46:38.270Z,1000.59
2018-10-07T03:47:38.239Z,1000.65
2018-10-07T03:48:38.230Z,1000.73
2018-10-07T03:49:39.040Z,1000.80
2018-10-07T03:50:38.220Z,1000.74
2018-10-07T03:51:38.250Z,1000.74
2018-10-07T03:52:38.185Z,1000.84
2018-10-07T03:53:38.170Z,1000.82
2018-10-07T03:54:38.164Z,1000.74
2018-10-07T03:55:38.150Z,1000.80
2018-10-07T03:56:38.140Z,1000.82
2018-10-07T03:57:38.186Z,1000.78
2018-10-07T03:58:38.127Z,1000.84
2018-10-07T03:59:38.109Z,1000.87
2018-10-07T04:00:38.102Z,1000.84
2018-10-07T04:01:38.100Z,1001.02
2018-10-07T04:02:38.102Z,1001.08
2018-10-07T04:03:38.076Z,1001.09
2018-10-07T04:04:38.095Z,1001.12
2018-10-07T04:05:38.047Z,1001.12
2018-10-07T04:06:38.043Z,1001.12
2018-10-07T04:07:38.059Z,1001.05
2018-10-07T04:08:38.018Z,1001.06
2018-10-07T04:09:38.010Z,1001.07
2018-10-07T04:10:38.049Z,1001.08
2018-10-07T04:11:37.988Z,1001.08
2018-10-07T04:12:37.973Z,1001.09
2018-10-07T04:13:38.001Z,1001.05
2018-10-07T04:14:37.954Z,1001.09
2018-10-07T04:15:37.944Z,1001.09
2018-10-07T04:16:37.953Z,1001.13
2018-10-07T04:17:37.920Z,1001.12
2018-10-07T04:18:37.939Z,1001.13
2018-10-07T04:19:37.900Z,1001.15
2018-10-07T04:20:37.904Z,1001.18
2018-10-07T04:21:37.881Z,1001.25
2018-10-07T04:22:37.911Z,1001.30
2018-10-07T04:23:37.886Z,1001.23
2018-10-07T04:24:37.845Z,1001.18
2018-10-07T04:25:37.842Z,1001.32
2018-10-07T04:26:37.832Z,1001.29
2018-10-07T04:27:37.818Z,1001.30
2018-10-07T04:28:37.889Z,1001.32
2018-10-07T04:29:37.799Z,1001.25
2018-10-07T04:30:37.785Z,1001.25
2018-10-07T04:31:37.780Z,1001.29
2018-10-07T04:32:37.767Z,1001.33
2018-10-07T04:33:37.828Z,1001.27
2018-10-07T04:34:37.784Z,1001.31
2018-10-07T04:35:37.735Z,1001.32
2018-10-07T04:36:37.730Z,1001.31
2018-10-07T04:37:37.712Z,1001.23
2018-10-07T04:38:37.736Z,1001.27
2018-10-07T04:39:37.698Z,1001.38
2018-10-07T04:40:37.708Z,1001.42
2018-10-07T04:41:37.669Z,1001.41
2018-10-07T04:42:37.662Z,1001.41
2018-10-07T04:43:37.682Z,1001.30
2018-10-07T04:44:37.638Z,1001.28
2018-10-07T04:45:37.646Z,1001.26
2018-10-07T04:46:37.646Z,1001.24
2018-10-07T04:47:37.603Z,1001.29
2018-10-07T04:48:37.624Z,1001.30
2018-10-07T04:49:37.587Z,1001.27
2018-10-07T04:50:37.584Z,1001.27
2018-10-07T04:51:37.566Z,1001.24
2018-10-07T04:52:37.590Z,1001.14
2018-10-07T04:53:37.581Z,1001.17
2018-10-07T04:54:37.542Z,1001.28
2018-10-07T04:55:37.531Z,1001.27
2018-10-07T04:56:37.508Z,1001.42
2018-10-07T04:57:37.506Z,1001.40
2018-10-07T04:58:37.565Z,1001.41
2018-10-07T04:59:37.497Z,1001.42
2018-10-07T05:00:37.475Z,1001.51
2018-10-07T05:01:37.478Z,1001.59
2018-10-07T05:02:37.448Z,1001.57
2018-10-07T05:03:37.463Z,1001.60
2018-10-07T05:04:37.440Z,1001.55
2018-10-07T05:05:37.450Z,1001.68
2018-10-07T05:06:37.430Z,1001.72
2018-10-07T05:07:37.397Z,1001.77
2018-10-07T05:08:37.411Z,1001.70
2018-10-07T05:09:37.385Z,1001.68
2018-10-07T05:10:37.362Z,1001.73
2018-10-07T05:11:37.369Z,1001.64
2018-10-07T05:12:37.422Z,1001.69
2018-10-07T05:13:37.368Z,1001.73
2018-10-07T05:14:37.341Z,1001.79
2018-10-07T05:15:37.310Z,1001.67
2018-10-07T05:16:37.315Z,1001.73
2018-10-07T05:17:37.292Z,1001.53
2018-10-07T05:18:37.343Z,1001.76
2018-10-07T05:19:37.283Z,1001.77
2018-10-07T05:20:37.272Z,1001.79
2018-10-07T05:21:37.251Z,1001.96
2018-10-07T05:22:37.241Z,1001.94
2018-10-07T05:23:37.275Z,1001.99
2018-10-07T05:24:37.248Z,1002.06
2018-10-07T05:25:37.215Z,1002.06
2018-10-07T05:26:37.206Z,1002.16
2018-10-07T05:27:37.208Z,1002.13
2018-10-07T05:28:37.210Z,1002.19
2018-10-07T05:29:37.179Z,1002.15
2018-10-07T05:30:37.166Z,1002.24
2018-10-07T05:31:37.149Z,1002.21
2018-10-07T05:32:37.157Z,1002.19
2018-10-07T05:33:37.303Z,1002.22
2018-10-07T05:34:37.127Z,1002.25
2018-10-07T05:35:37.100Z,1002.25
2018-10-07T05:36:37.108Z,1002.15
2018-10-07T05:37:37.084Z,1002.19
2018-10-07T05:38:37.121Z,1002.23
2018-10-07T05:39:37.070Z,1002.25
2018-10-07T05:40:37.063Z,1002.34
2018-10-07T05:41:37.044Z,1002.25
2018-10-07T05:42:37.071Z,1002.25
2018-10-07T05:43:37.062Z,1002.27
2018-10-07T05:44:37.269Z,1002.43
2018-10-07T05:45:37.008Z,1002.42
2018-10-07T05:46:36.996Z,1002.48
2018-10-07T05:47:36.978Z,1002.47
2018-10-07T05:48:37.001Z,1002.50
2018-10-07T05:49:36.962Z,1002.55
2018-10-07T05:50:36.948Z,1002.61
2018-10-07T05:51:36.967Z,1002.64
2018-10-07T05:52:36.928Z,1002.66
2018-10-07T05:53:36.948Z,1002.66
2018-10-07T05:54:36.923Z,1002.60
2018-10-07T05:55:36.985Z,1002.65
2018-10-07T05:56:36.884Z,1002.72
2018-10-07T05:57:36.891Z,1002.81
2018-10-07T05:58:36.919Z,1002.81
2018-10-07T05:59:36.870Z,1002.84
2018-10-07T06:00:36.855Z,1002.88
2018-10-07T06:01:36.884Z,1002.83
2018-10-07T06:02:36.839Z,1002.86
2018-10-07T06:03:36.844Z,1002.82
2018-10-07T06:04:36.832Z,1002.99
2018-10-07T06:05:36.791Z,1003.01
2018-10-07T06:06:36.797Z,1003.02
2018-10-07T06:07:36.777Z,1003.01
2018-10-07T06:08:36.782Z,1003.06
2018-10-07T06:09:36.749Z,1003.03
2018-10-07T06:10:36.740Z,1003.06
2018-10-07T06:11:36.743Z,1003.13
2018-10-07T06:12:36.730Z,1003.11
2018-10-07T06:13:36.731Z,1003.13
2018-10-07T06:14:36.700Z,1003.21
2018-10-07T06:15:36.688Z,1003.22
2018-10-07T06:16:36.674Z,1003.20
2018-10-07T06:17:36.671Z,1003.24
2018-10-07T06:18:36.677Z,1003.30
2018-10-07T06:19:36.703Z,1003.36
2018-10-07T06:20:36.645Z,1003.23
2018-10-07T06:21:36.697Z,1003.28
2018-10-07T06:22:36.609Z,1003.26
2018-10-07T06:23:36.628Z,1003.29
2018-10-07T06:24:36.584Z,1003.28
2018-10-07T06:25:36.575Z,1003.25
2018-10-07T06:26:36.582Z,1003.32
2018-10-07T06:27:36.566Z,1003.23
2018-10-07T06:28:36.571Z,1003.29
2018-10-07T06:29:36.548Z,1003.31
2018-10-07T06:30:36.524Z,1003.33
2018-10-07T06:31:36.547Z,1003.34
2018-10-07T06:32:36.508Z,1003.35
2018-10-07T06:33:36.522Z,1003.33
2018-10-07T06:34:36.480Z,1003.35
2018-10-07T06:35:36.477Z,1003.32
2018-10-07T06:36:36.496Z,1003.43
2018-10-07T06:37:36.449Z,1003.50
2018-10-07T06:38:36.533Z,1003.43
2018-10-07T06:39:36.440Z,1003.48
2018-10-07T06:40:36.422Z,1003.52
2018-10-07T06:41:36.409Z,1003.54
2018-10-07T06:42:36.486Z,1003.55
2018-10-07T06:43:36.415Z,1003.57
2018-10-07T06:44:36.382Z,1003.56
2018-10-07T06:45:36.391Z,1003.64
2018-10-07T06:46:36.394Z,1003.63
2018-10-07T06:47:36.369Z,1003.67
2018-10-07T06:48:36.378Z,1003.73
2018-10-07T06:49:36.341Z,1003.77
2018-10-07T06:50:36.339Z,1003.82
2018-10-07T06:51:36.302Z,1003.79
2018-10-07T06:52:36.297Z,1003.84
2018-10-07T06:53:36.359Z,1003.91
2018-10-07T06:54:36.272Z,1003.96
2018-10-07T06:55:36.263Z,1003.87
2018-10-07T06:56:36.798Z,1003.89
2018-10-07T06:57:36.234Z,1003.93
2018-10-07T06:58:36.270Z,1003.94
2018-10-07T06:59:36.239Z,1003.97
2018-10-07T07:00:36.389Z,1004.01
2018-10-07T07:01:36.328Z,1004.10
2018-10-07T07:02:36.184Z,1004.07
2018-10-07T07:03:36.229Z,1004.07
2018-10-07T07:04:36.166Z,1004.11
2018-10-07T07:05:36.156Z,1004.12
2018-10-07T07:06:36.222Z,1004.16
2018-10-07T07:07:36.137Z,1004.19
2018-10-07T07:08:36.155Z,1004.20
2018-10-07T07:09:36.119Z,1004.20
2018-10-07T07:10:36.108Z,1004.25
2018-10-07T07:11:36.106Z,1004.27
2018-10-07T07:12:36.076Z,1004.30
2018-10-07T07:13:36.127Z,1004.32
2018-10-07T07:14:36.094Z,1004.31
2018-10-07T07:15:36.117Z,1004.28
2018-10-07T07:16:36.039Z,1004.35
2018-10-07T07:17:36.178Z,1004.31
2018-10-07T07:18:36.251Z,1004.34
2018-10-07T07:19:36.063Z,1004.35
2018-10-07T07:20:36.147Z,1004.37
2018-10-07T07:21:36.034Z,1004.38
2018-10-07T07:22:35.984Z,1004.32
2018-10-07T07:23:35.994Z,1004.32
2018-10-07T07:24:36.262Z,1004.33
2018-10-07T07:25:35.942Z,1004.27
2018-10-07T07:26:35.978Z,1004.27
2018-10-07T07:27:35.927Z,1004.34
2018-10-07T07:28:35.952Z,1004.29
2018-10-07T07:29:35.897Z,1004.32
2018-10-07T07:30:36.055Z,1004.34
2018-10-07T07:31:35.879Z,1004.34
2018-10-07T07:32:35.864Z,1004.26
2018-10-07T07:33:35.905Z,1004.24
2018-10-07T07:34:35.849Z,1004.25
2018-10-07T07:35:35.866Z,1004.28
2018-10-07T07:36:35.831Z,1004.26
2018-10-07T07:37:35.926Z,1004.28
2018-10-07T07:38:35.830Z,1004.26
2018-10-07T07:39:35.801Z,1004.23
2018-10-07T07:40:35.811Z,1004.28
2018-10-07T07:41:35.777Z,1004.26
2018-10-07T07:42:35.769Z,1004.18
2018-10-07T07:43:35.785Z,1004.25
2018-10-07T07:44:35.839Z,1004.27
2018-10-07T07:45:36.657Z,1004.27
2018-10-07T07:46:35.771Z,1004.32
2018-10-07T07:47:35.793Z,1004.35
2018-10-07T07:48:35.727Z,1004.38
2018-10-07T07:49:35.685Z,1004.38
2018-10-07T07:50:35.676Z,1004.41
2018-10-07T07:51:35.667Z,1004.40
2018-10-07T07:52:35.672Z,1004.42
2018-10-07T07:53:35.677Z,1004.44
2018-10-07T07:54:35.635Z,1004.44
2018-10-07T07:55:35.629Z,1004.41
2018-10-07T07:56:35.658Z,1004.37
2018-10-07T07:57:35.641Z,1004.47
2018-10-07T07:58:35.621Z,1004.51
2018-10-07T07:59:35.687Z,1004.51
2018-10-07T08:00:35.575Z,1004.57
2018-10-07T08:01:36.960Z,1004.56
2018-10-07T08:02:35.551Z,1004.63
2018-10-07T08:03:35.618Z,1004.64
2018-10-07T08:04:35.965Z,1004.67
2018-10-07T08:05:35.524Z,1004.66
2018-10-07T08:06:35.541Z,1004.66
2018-10-07T08:07:35.499Z,1004.69
2018-10-07T08:08:35.567Z,1004.70
2018-10-07T08:09:35.476Z,1004.71
2018-10-07T08:10:35.482Z,1004.76
2018-10-07T08:11:35.501Z,1004.75
2018-10-07T08:12:35.500Z,1004.81
2018-10-07T08:13:35.463Z,1004.75
2018-10-07T08:14:35.452Z,1004.75
2018-10-07T08:15:35.414Z,1004.82
2018-10-07T08:16:35.410Z,1004.83
2018-10-07T08:17:35.420Z,1004.86
2018-10-07T08:18:35.419Z,1004.87
2018-10-07T08:19:35.398Z,1004.88
2018-10-07T08:20:35.437Z,1004.91
2018-10-07T08:21:35.361Z,1004.93
2018-10-07T08:22:35.347Z,1004.96
2018-10-07T08:23:35.415Z,1004.96
2018-10-07T08:24:35.318Z,1004.93
2018-10-07T08:25:35.466Z,1004.94
2018-10-07T08:26:35.298Z,1004.99
2018-10-07T08:27:35.293Z,1005.03
2018-10-07T08:28:35.348Z,1005.07
2018-10-07T08:29:35.348Z,1005.05
2018-10-07T08:30:35.256Z,1005.02
2018-10-07T08:31:35.575Z,1005.09
2018-10-07T08:32:35.235Z,1005.09
2018-10-07T08:33:35.278Z,1005.12
2018-10-07T08:34:35.223Z,1005.14
2018-10-07T08:35:35.221Z,1005.22
2018-10-07T08:36:35.193Z,1005.17
2018-10-07T08:37:35.183Z,1005.22
2018-10-07T08:38:35.210Z,1005.16
2018-10-07T08:39:35.184Z,1005.23
2018-10-07T08:40:35.292Z,1005.16
2018-10-07T08:41:35.147Z,1005.18
2018-10-07T08:42:35.152Z,1005.28
2018-10-07T08:43:35.155Z,1005.24
2018-10-07T08:44:35.152Z,1005.31
2018-10-07T08:45:35.098Z,1005.29
2018-10-07T08:46:35.088Z,1005.32
2018-10-07T08:47:35.080Z,1005.37
2018-10-07T08:48:35.112Z,1005.33
2018-10-07T08:49:35.080Z,1005.37
2018-10-07T08:50:35.080Z,1005.34
2018-10-07T08:51:35.051Z,1005.40
2018-10-07T08:52:35.038Z,1005.39
2018-10-07T08:53:35.049Z,1005.40
2018-10-07T08:54:35.007Z,1005.40
2018-10-07T08:55:35.024Z,1005.41
2018-10-07T08:56:35.012Z,1005.44
2018-10-07T08:57:34.973Z,1005.47
2018-10-07T08:58:34.993Z,1005.48
2018-10-07T08:59:34.970Z,1005.41
2018-10-07T09:00:34.947Z,1005.45
2018-10-07T09:01:34.948Z,1005.52
2018-10-07T09:02:34.976Z,1005.55
2018-10-07T09:03:34.940Z,1005.48
2018-10-07T09:04:34.903Z,1005.50
2018-10-07T09:05:34.900Z,1005.49
2018-10-07T09:06:34.894Z,1005.54
2018-10-07T09:07:34.908Z,1005.54
2018-10-07T09:08:34.915Z,1005.47
2018-10-07T09:09:34.846Z,1005.46
2018-10-07T09:10:34.835Z,1005.52
2018-10-07T09:11:34.846Z,1005.49
2018-10-07T09:12:34.859Z,1005.50
2018-10-07T09:13:34.832Z,1005.49
2018-10-07T09:14:34.810Z,1005.56
2018-10-07T09:15:34.796Z,1005.55
2018-10-07T09:16:34.792Z,1005.55
2018-10-07T09:17:34.790Z,1005.60
2018-10-07T09:18:34.781Z,1005.54
2018-10-07T09:19:34.741Z,1005.61
2018-10-07T09:20:34.732Z,1005.58
2018-10-07T09:21:34.725Z,1005.65
2018-10-07T09:22:34.727Z,1005.65
2018-10-07T09:23:34.748Z,1005.56
2018-10-07T09:24:34.705Z,1005.70
2018-10-07T09:25:34.687Z,1005.75
2018-10-07T09:26:34.666Z,1005.72
2018-10-07T09:27:34.721Z,1005.86
2018-10-07T09:28:34.676Z,1005.84
2018-10-07T09:29:34.635Z,1005.86
2018-10-07T09:30:34.638Z,1005.74
2018-10-07T09:31:34.627Z,1005.82
2018-10-07T09:32:34.754Z,1005.85
2018-10-07T09:33:35.196Z,1005.87
2018-10-07T09:34:34.588Z,1005.90
2018-10-07T09:35:34.576Z,1005.89
2018-10-07T09:36:34.663Z,1005.85
2018-10-07T09:37:34.561Z,1005.81
2018-10-07T09:38:34.579Z,1005.95
2018-10-07T09:39:34.550Z,1005.89
2018-10-07T09:40:34.529Z,1005.87
2018-10-07T09:41:34.521Z,1005.87
2018-10-07T09:42:34.509Z,1005.88
2018-10-07T09:43:34.578Z,1005.91
2018-10-07T09:44:34.500Z,1005.96
2018-10-07T09:45:34.501Z,1005.92
2018-10-07T09:46:34.468Z,1005.92
2018-10-07T09:47:34.509Z,1005.85
2018-10-07T09:48:34.464Z,1005.91
2018-10-07T09:49:34.438Z,1005.94
2018-10-07T09:50:34.518Z,1006.06
2018-10-07T09:51:34.423Z,1006.02
2018-10-07T09:52:34.405Z,1006.01
2018-10-07T09:53:34.452Z,1006.00
2018-10-07T09:54:34.380Z,1006.03
2018-10-07T09:55:34.361Z,1006.05
2018-10-07T09:56:34.367Z,1005.97
2018-10-07T09:57:34.358Z,1005.94
2018-10-07T09:58:34.373Z,1005.95
2018-10-07T09:59:34.331Z,1005.99
2018-10-07T10:00:34.320Z,1006.01
2018-10-07T10:01:34.317Z,1006.08
2018-10-07T10:02:34.316Z,1006.04
2018-10-07T10:03:34.310Z,1006.02
2018-10-07T10:04:34.558Z,1006.14
2018-10-07T10:05:34.289Z,1006.13
2018-10-07T10:06:34.242Z,1006.08
2018-10-07T10:07:34.243Z,1006.03
2018-10-07T10:08:34.256Z,1006.02
2018-10-07T10:09:34.211Z,1006.00
2018-10-07T10:10:34.219Z,1006.08
2018-10-07T10:11:34.190Z,1005.98
2018-10-07T10:12:34.178Z,1006.04
2018-10-07T10:13:34.192Z,1006.01
2018-10-07T10:14:34.158Z,1005.99
2018-10-07T10:15:34.162Z,1006.02
2018-10-07T10:16:34.144Z,1006.10
2018-10-07T10:17:34.211Z,1006.08
2018-10-07T10:18:34.213Z,1006.09
2018-10-07T10:19:34.151Z,1006.10
2018-10-07T10:20:34.111Z,1006.15
2018-10-07T10:21:34.097Z,1006.07
2018-10-07T10:22:34.080Z,1005.97
2018-10-07T10:23:34.117Z,1006.04
2018-10-07T10:24:34.076Z,1006.09
2018-10-07T10:25:34.047Z,1006.06
2018-10-07T10:26:34.039Z,1006.15
2018-10-07T10:27:34.030Z,1006.12
2018-10-07T10:28:34.149Z,1006.15
2018-10-07T10:29:34.017Z,1006.21
2018-10-07T10:30:34.011Z,1006.19
2018-10-07T10:31:34.001Z,1006.13
2018-10-07T10:32:34.095Z,1006.18
2018-10-07T10:33:34.098Z,1006.14
2018-10-07T10:34:33.955Z,1006.25
2018-10-07T10:35:33.971Z,1006.21
2018-10-07T10:36:33.956Z,1006.30
2018-10-07T10:37:33.929Z,1006.33
2018-10-07T10:38:33.933Z,1006.33
2018-10-07T10:39:33.999Z,1006.35
2018-10-07T10:40:33.999Z,1006.38
2018-10-07T10:41:34.538Z,1006.35
2018-10-07T10:42:33.887Z,1006.31
2018-10-07T10:43:33.902Z,1006.31
2018-10-07T10:44:33.881Z,1006.40
2018-10-07T10:45:33.849Z,1006.38
2018-10-07T10:46:33.986Z,1006.44
2018-10-07T10:47:33.822Z,1006.45
2018-10-07T10:48:33.848Z,1006.48
2018-10-07T10:49:33.858Z,1006.51
2018-10-07T10:50:33.867Z,1006.39
2018-10-07T10:51:33.789Z,1006.48
2018-10-07T10:52:33.779Z,1006.47
2018-10-07T10:53:33.801Z,1006.49
2018-10-07T10:54:33.780Z,1006.49
2018-10-07T10:55:33.744Z,1006.43
2018-10-07T10:56:33.753Z,1006.48
2018-10-07T10:57:33.728Z,1006.43
2018-10-07T10:58:33.722Z,1006.44
2018-10-07T10:59:33.707Z,1006.38
2018-10-07T11:00:33.685Z,1006.47
2018-10-07T11:01:33.700Z,1006.48
2018-10-07T11:02:33.665Z,1006.41
2018-10-07T11:03:33.667Z,1006.48
2018-10-07T11:04:33.640Z,1006.48
2018-10-07T11:05:33.625Z,1006.49
2018-10-07T11:06:33.649Z,1006.56
2018-10-07T11:07:33.606Z,1006.60
2018-10-07T11:08:33.784Z,1006.52
2018-10-07T11:09:34.537Z,1006.49
2018-10-07T11:10:33.567Z,1006.44
2018-10-07T11:11:33.592Z,1006.48
2018-10-07T11:12:33.630Z,1006.46
2018-10-07T11:13:33.574Z,1006.51
2018-10-07T11:14:33.552Z,1006.48
2018-10-07T11:15:33.569Z,1006.40
2018-10-07T11:16:33.519Z,1006.44
2018-10-07T11:17:33.499Z,1006.44
2018-10-07T11:18:33.565Z,1006.46
2018-10-07T11:19:33.607Z,1006.39
2018-10-07T11:20:33.480Z,1006.34
2018-10-07T11:21:33.483Z,1006.34
2018-10-07T11:22:33.453Z,1006.32
2018-10-07T11:23:33.479Z,1006.33
2018-10-07T11:24:33.434Z,1006.34
2018-10-07T11:25:33.427Z,1006.31
2018-10-07T11:26:33.431Z,1006.30
2018-10-07T11:27:33.425Z,1006.28
2018-10-07T11:28:33.423Z,1006.27
2018-10-07T11:29:33.393Z,1006.28
2018-10-07T11:30:33.388Z,1006.35
2018-10-07T11:31:33.368Z,1006.29
2018-10-07T11:32:33.351Z,1006.25
2018-10-07T11:33:33.368Z,1006.34
2018-10-07T11:34:33.344Z,1006.26
2018-10-07T11:35:33.319Z,1006.27
2018-10-07T11:36:33.298Z,1006.20
2018-10-07T11:37:33.293Z,1006.17
2018-10-07T11:38:33.386Z,1006.21
2018-10-07T11:39:33.272Z,1006.25
2018-10-07T11:40:33.266Z,1006.23
2018-10-07T11:41:33.257Z,1006.23
2018-10-07T11:42:33.312Z,1006.29
2018-10-07T11:43:33.267Z,1006.24
2018-10-07T11:44:33.241Z,1006.28
2018-10-07T11:45:33.200Z,1006.24
2018-10-07T11:46:33.196Z,1006.26
2018-10-07T11:47:33.173Z,1006.19
2018-10-07T11:48:33.210Z,1006.20
2018-10-07T11:49:33.245Z,1006.10
2018-10-07T11:50:33.159Z,1006.15
2018-10-07T11:51:33.149Z,1006.24
2018-10-07T11:52:33.153Z,1006.24
2018-10-07T11:53:33.165Z,1006.23
2018-10-07T11:54:33.130Z,1006.15
2018-10-07T11:55:33.117Z,1006.18
2018-10-07T11:56:33.097Z,1006.09
2018-10-07T11:57:33.102Z,1006.04
2018-10-07T11:58:33.087Z,1006.17
2018-10-07T11:59:33.052Z,1006.09
2018-10-07T12:00:33.045Z,1006.04
2018-10-07T12:01:33.137Z,1006.20
2018-10-07T12:02:33.069Z,1006.17
2018-10-07T12:03:33.055Z,1006.09
2018-10-07T12:04:33.112Z,1006.10
2018-10-07T12:05:33.020Z,1006.18
2018-10-07T12:06:33.000Z,1006.13
2018-10-07T12:07:33.571Z,1006.15
2018-10-07T12:08:32.991Z,1006.12
2018-10-07T12:09:32.951Z,1006.09
2018-10-07T12:10:33.012Z,1006.11
2018-10-07T12:11:32.934Z,1006.06